createdAt,value
2022-11-28T00:02:19.894Z,7.35
2022-11-28T00:04:46.500Z,5.95
2022-11-28T00:07:13.303Z,7.30
2022-11-28T00:09:39.977Z,6.75
2022-11-28T00:12:06.679Z,6.78
2022-11-28T00:14:33.111Z,8.13
2022-11-28T00:16:59.497Z,5.78
2022-11-28T00:19:25.907Z,8.80
2022-11-28T00:21:52.320Z,5.70
2022-11-28T00:24:18.812Z,8.68
2022-11-28T00:26:45.305Z,5.93
2022-11-28T00:29:11.942Z,4.65
2022-11-28T00:31:42.653Z,4.05
2022-11-28T00:34:11.504Z,6.68
2022-11-28T00:36:37.926Z,7.18
2022-11-28T00:39:04.879Z,6.47
2022-11-28T00:41:33.969Z,6.68
2022-11-28T00:44:00.935Z,6.75
2022-11-28T00:46:27.952Z,5.82
2022-11-28T00:48:54.438Z,6.43
2022-11-28T00:51:24.349Z,7.25
2022-11-28T00:53:52.906Z,4.93
2022-11-28T00:56:22.351Z,8.32
2022-11-28T00:58:49.799Z,6.18
2022-11-28T01:01:28.100Z,4.32
2022-11-28T01:03:57.048Z,6.78
2022-11-28T01:06:32.661Z,8.70
2022-11-28T01:09:02.114Z,10.50
2022-11-28T01:11:29.478Z,6.68
2022-11-28T01:13:57.786Z,6.75
2022-11-28T01:16:24.502Z,5.25
2022-11-28T01:18:52.264Z,8.88
2022-11-28T01:21:19.416Z,5.05
2022-11-28T01:23:46.173Z,6.30
2022-11-28T01:26:17.735Z,6.28
2022-11-28T01:28:44.472Z,7.55
2022-11-28T01:31:13.994Z,5.70
2022-11-28T01:33:40.498Z,7.22
2022-11-28T01:36:07.227Z,6.53
2022-11-28T01:38:34.907Z,5.00
2022-11-28T01:41:01.795Z,7.95
2022-11-28T01:43:28.300Z,5.53
2022-11-28T01:45:55.151Z,8.23
2022-11-28T01:48:27.961Z,6.63
2022-11-28T01:51:00.240Z,7.68
2022-11-28T01:53:31.237Z,7.15
2022-11-28T01:56:09.057Z,5.68
2022-11-28T01:58:39.978Z,8.65
2022-11-28T02:01:07.531Z,5.80
2022-11-28T02:03:42.100Z,5.65
2022-11-28T02:06:09.567Z,4.72
2022-11-28T02:08:36.798Z,5.63
2022-11-28T02:11:20.066Z,7.28
2022-11-28T02:14:21.339Z,6.85
2022-11-28T02:17:16.617Z,4.68
2022-11-28T02:20:19.948Z,7.50
2022-11-28T02:23:03.882Z,6.72
2022-11-28T02:26:04.056Z,4.85
2022-11-28T02:31:21.315Z,7.57
2022-11-28T02:33:52.599Z,7.85
2022-11-28T02:36:46.093Z,7.22
2022-11-28T02:39:33.024Z,7.20
2022-11-28T02:42:20.512Z,6.13
2022-11-28T02:44:57.685Z,6.88
2022-11-28T02:47:38.210Z,6.78
2022-11-28T02:50:28.894Z,8.27
2022-11-28T02:53:13.506Z,7.72
2022-11-28T02:55:41.199Z,7.15
2022-11-28T02:58:10.729Z,6.82
2022-11-28T03:00:43.562Z,7.43
2022-11-28T03:03:31.391Z,8.05
2022-11-28T03:06:00.342Z,8.70
2022-11-28T03:08:57.053Z,6.70
2022-11-28T03:11:46.128Z,6.50
2022-11-28T03:14:27.600Z,8.25
2022-11-28T03:17:11.526Z,6.15
2022-11-28T03:19:42.560Z,6.45
2022-11-28T03:22:30.476Z,7.82
2022-11-28T03:25:14.226Z,7.18
2022-11-28T03:27:49.226Z,6.88
2022-11-28T03:30:30.214Z,8.48
2022-11-28T03:32:57.969Z,7.47
2022-11-28T03:35:30.810Z,7.65
2022-11-28T03:38:11.116Z,7.15
2022-11-28T03:40:42.753Z,8.35
2022-11-28T03:43:13.171Z,8.23
2022-11-28T03:45:45.057Z,7.13
2022-11-28T03:48:34.102Z,6.28
2022-11-28T03:51:09.640Z,6.85
2022-11-28T03:53:48.834Z,6.50
2022-11-28T03:56:23.222Z,6.88
2022-11-28T03:58:56.503Z,6.93
2022-11-28T04:02:06.744Z,8.35
2022-11-28T04:04:40.183Z,9.90
2022-11-28T04:07:40.703Z,11.18
2022-11-28T04:10:21.340Z,7.43
2022-11-28T04:12:53.769Z,7.95
2022-11-28T04:15:45.167Z,7.22
2022-11-28T04:18:26.109Z,7.65
2022-11-28T04:20:59.836Z,8.90
2022-11-28T04:23:27.983Z,8.20
2022-11-28T04:26:03.627Z,7.03
2022-11-28T04:28:33.802Z,9.93
2022-11-28T04:31:04.177Z,7.72
2022-11-28T04:33:35.834Z,6.45
2022-11-28T04:36:04.785Z,7.65
2022-11-28T04:38:33.444Z,8.30
2022-11-28T04:41:15.305Z,7.05
2022-11-28T04:43:52.040Z,8.40
2022-11-28T04:46:26.914Z,6.68
2022-11-28T04:48:53.584Z,7.57
2022-11-28T04:51:55.414Z,7.85
2022-11-28T04:54:32.598Z,8.20
2022-11-28T04:57:03.953Z,7.15
2022-11-28T04:59:31.650Z,9.75
2022-11-28T05:02:02.585Z,7.03
2022-11-28T05:04:29.131Z,8.82
2022-11-28T05:07:07.467Z,7.88
2022-11-28T05:09:34.759Z,8.95
2022-11-28T05:12:01.336Z,8.02
2022-11-28T05:14:27.791Z,7.15
2022-11-28T05:16:54.293Z,9.68
2022-11-28T05:19:20.887Z,9.15
2022-11-28T05:21:47.449Z,6.38
2022-11-28T05:24:13.968Z,7.13
2022-11-28T05:26:40.560Z,7.57
2022-11-28T05:29:07.117Z,8.15
2022-11-28T05:31:33.738Z,7.88
2022-11-28T05:34:00.235Z,8.25
2022-11-28T05:36:26.712Z,9.07
2022-11-28T05:38:53.123Z,7.47
2022-11-28T05:41:37.687Z,8.90
2022-11-28T05:44:04.158Z,8.35
2022-11-28T05:46:30.682Z,7.72
2022-11-28T05:48:57.308Z,7.85
2022-11-28T05:51:24.479Z,11.48
2022-11-28T05:53:50.903Z,8.30
2022-11-28T05:56:19.412Z,11.75
2022-11-28T05:58:46.229Z,7.07
2022-11-28T06:01:18.151Z,8.05
2022-11-28T06:03:45.083Z,7.78
2022-11-28T06:06:22.138Z,7.43
2022-11-28T06:08:49.764Z,12.43
2022-11-28T06:11:16.499Z,9.35
2022-11-28T06:13:43.880Z,8.43
2022-11-28T06:16:12.971Z,9.00
2022-11-28T06:18:39.981Z,11.02
2022-11-28T06:21:08.519Z,7.82
2022-11-28T06:23:35.314Z,8.10
2022-11-28T06:26:06.959Z,7.90
2022-11-28T06:28:34.182Z,7.45
2022-11-28T06:31:00.719Z,9.77
2022-11-28T06:33:27.245Z,7.45
2022-11-28T06:36:01.188Z,8.70
2022-11-28T06:38:28.616Z,7.65
2022-11-28T06:40:59.591Z,8.82
2022-11-28T06:43:26.191Z,9.38
2022-11-28T06:45:52.643Z,7.80
2022-11-28T06:48:19.944Z,7.93
2022-11-28T06:50:47.187Z,10.25
2022-11-28T06:53:14.522Z,7.15
2022-11-28T06:55:41.315Z,8.93
2022-11-28T06:58:15.666Z,7.50
2022-11-28T07:00:42.175Z,7.45
2022-11-28T07:03:08.649Z,9.93
2022-11-28T07:05:35.146Z,10.38
2022-11-28T07:08:01.662Z,9.88
2022-11-28T07:10:28.829Z,11.07
2022-11-28T07:12:59.337Z,8.15
2022-11-28T07:15:28.993Z,8.25
2022-11-28T07:17:55.497Z,8.32
2022-11-28T07:20:22.024Z,8.63
2022-11-28T07:22:48.762Z,9.45
2022-11-28T07:25:15.992Z,8.88
2022-11-28T07:27:43.032Z,9.15
2022-11-28T07:30:10.164Z,7.88
2022-11-28T07:32:40.334Z,9.77
2022-11-28T07:35:08.908Z,9.98
2022-11-28T07:37:36.039Z,9.10
2022-11-28T07:40:03.109Z,14.68
2022-11-28T07:42:29.548Z,10.23
2022-11-28T07:44:55.996Z,8.55
2022-11-28T07:47:22.411Z,8.50
2022-11-28T07:49:48.850Z,9.07
2022-11-28T07:52:15.407Z,11.13
2022-11-28T07:54:41.941Z,8.05
2022-11-28T07:57:12.443Z,10.20
2022-11-28T07:59:40.899Z,10.20
2022-11-28T08:02:09.138Z,7.85
2022-11-28T08:04:36.736Z,9.85
2022-11-28T08:07:03.326Z,9.40
2022-11-28T08:09:31.793Z,10.55
2022-11-28T08:11:58.733Z,7.97
2022-11-28T08:14:25.441Z,11.55
2022-11-28T08:16:52.401Z,9.27
2022-11-28T08:19:23.013Z,8.43
2022-11-28T08:21:51.564Z,9.63
2022-11-28T08:24:18.027Z,7.88
2022-11-28T08:26:44.483Z,10.35
2022-11-28T08:29:11.163Z,7.25
2022-11-28T08:31:39.806Z,12.40
2022-11-28T08:34:09.542Z,9.05
2022-11-28T08:36:36.599Z,8.65
2022-11-28T08:41:51.682Z,9.10
2022-11-28T08:44:18.267Z,10.02
2022-11-28T08:46:44.773Z,9.68
2022-11-28T08:49:11.257Z,10.98
2022-11-28T08:51:37.754Z,7.25
2022-11-28T08:54:04.497Z,8.20
2022-11-28T08:56:31.217Z,9.00
2022-11-28T08:58:57.774Z,8.43
2022-11-28T09:01:26.274Z,9.60
2022-11-28T09:03:53.936Z,11.13
2022-11-28T09:06:21.751Z,11.30
2022-11-28T09:08:49.709Z,11.82
2022-11-28T09:11:18.495Z,9.82
2022-11-28T09:13:45.491Z,9.25
2022-11-28T09:16:12.477Z,11.15
2022-11-28T09:18:39.013Z,10.57
2022-11-28T09:21:11.925Z,12.40
2022-11-28T09:23:41.194Z,14.20
2022-11-28T09:28:45.119Z,11.75
2022-11-28T09:31:13.289Z,14.80
2022-11-28T09:33:40.371Z,13.50
2022-11-28T09:36:07.872Z,14.77
2022-11-28T09:38:34.475Z,14.10
2022-11-28T09:41:02.732Z,14.02
2022-11-28T09:43:32.822Z,16.67
2022-11-28T09:46:04.747Z,15.63
2022-11-28T09:48:39.358Z,14.35
2022-11-28T09:51:19.839Z,16.00
2022-11-28T09:54:15.727Z,13.95
2022-11-28T09:56:47.630Z,15.40
2022-11-28T09:59:25.499Z,13.75
2022-11-28T10:02:20.155Z,13.82
2022-11-28T10:05:10.765Z,12.95
2022-11-28T10:07:37.238Z,15.40
2022-11-28T10:10:58.088Z,14.70
2022-11-28T10:14:07.266Z,14.70
2022-11-28T10:16:56.606Z,15.50
2022-11-28T10:19:55.234Z,15.35
2022-11-28T10:22:36.559Z,15.30
2022-11-28T10:25:15.718Z,15.75
2022-11-28T10:27:42.692Z,12.00
2022-11-28T10:30:18.120Z,14.52
2022-11-28T10:35:28.546Z,12.18
2022-11-28T10:37:55.471Z,12.95
2022-11-28T10:40:43.001Z,12.38
2022-11-28T10:43:33.680Z,10.80
2022-11-28T10:46:15.316Z,14.70
2022-11-28T10:49:12.526Z,13.65
2022-11-28T10:52:05.428Z,11.93
2022-11-28T10:55:07.364Z,13.68
2022-11-28T10:57:44.471Z,11.70
2022-11-28T11:00:13.901Z,9.65
2022-11-28T11:02:47.732Z,11.13
2022-11-28T11:05:17.449Z,10.50
2022-11-28T11:07:49.430Z,11.13
2022-11-28T11:10:20.520Z,9.40
2022-11-28T11:12:50.209Z,10.43
2022-11-28T11:15:19.278Z,11.60
2022-11-28T11:17:45.909Z,8.18
2022-11-28T11:20:30.944Z,9.75
2022-11-28T11:23:00.861Z,10.40
2022-11-28T11:25:29.307Z,10.32
2022-11-28T11:28:01.777Z,10.77
2022-11-28T11:30:34.905Z,9.38
2022-11-28T11:33:04.247Z,8.80
2022-11-28T11:38:21.120Z,10.77
2022-11-28T11:40:51.846Z,10.48
2022-11-28T11:43:24.166Z,9.13
2022-11-28T11:46:06.193Z,9.40
2022-11-28T11:48:53.290Z,10.48
2022-11-28T11:51:25.850Z,8.98
2022-11-28T11:54:13.739Z,10.77
2022-11-28T11:56:44.540Z,8.90
2022-11-28T11:59:16.524Z,11.18
2022-11-28T12:01:46.496Z,10.85
2022-11-28T12:04:44.710Z,10.27
2022-11-28T12:07:22.141Z,10.85
2022-11-28T12:09:54.584Z,8.15
2022-11-28T12:12:29.416Z,10.75
2022-11-28T12:14:56.320Z,8.63
2022-11-28T12:17:49.483Z,11.30
2022-11-28T12:20:33.789Z,9.45
2022-11-28T12:23:30.890Z,11.75
2022-11-28T12:26:08.153Z,24.27
2022-11-28T12:29:06.056Z,11.45
2022-11-28T12:32:03.704Z,12.20
2022-11-28T12:35:06.804Z,12.20
2022-11-28T12:38:10.694Z,9.35
2022-11-28T12:41:14.822Z,9.73
2022-11-28T12:44:25.821Z,10.77
2022-11-28T12:47:04.570Z,10.77
2022-11-28T12:49:52.285Z,8.60
2022-11-28T12:55:44.026Z,9.73
2022-11-28T12:58:32.111Z,11.73
2022-11-28T13:01:04.757Z,10.60
2022-11-28T13:03:41.641Z,10.35
2022-11-28T13:06:20.180Z,8.43
2022-11-28T13:09:02.943Z,9.32
2022-11-28T13:11:38.382Z,8.07
2022-11-28T13:16:41.683Z,11.45
2022-11-28T13:19:30.388Z,10.63
2022-11-28T13:22:14.876Z,10.43
2022-11-28T13:24:51.351Z,9.20
2022-11-28T13:27:53.414Z,10.05
2022-11-28T13:30:26.112Z,10.30
2022-11-28T13:32:59.259Z,8.60
2022-11-28T13:35:28.661Z,11.05
2022-11-28T13:38:36.161Z,9.18
2022-11-28T13:41:06.675Z,9.88
2022-11-28T13:46:16.378Z,9.57
2022-11-28T13:51:34.765Z,8.75
2022-11-28T13:54:22.504Z,10.65
2022-11-28T13:59:32.343Z,9.32
2022-11-28T14:02:01.894Z,8.57
2022-11-28T14:04:31.050Z,11.80
2022-11-28T14:07:07.188Z,8.02
2022-11-28T14:09:57.963Z,10.48
2022-11-28T14:12:41.248Z,8.80
2022-11-28T14:15:29.644Z,9.82
2022-11-28T14:18:39.655Z,9.95
2022-11-28T14:21:11.468Z,8.60
2022-11-28T14:23:52.261Z,8.13
2022-11-28T14:26:35.393Z,9.88
2022-11-28T14:29:05.054Z,7.88
2022-11-28T14:31:35.736Z,9.90
2022-11-28T14:34:05.292Z,9.15
2022-11-28T14:36:39.224Z,8.30
2022-11-28T14:39:14.806Z,8.27
2022-11-28T14:42:03.971Z,9.80
2022-11-28T14:44:52.364Z,7.72
2022-11-28T14:47:21.923Z,6.72
2022-11-28T14:49:49.438Z,8.02
2022-11-28T14:52:39.095Z,8.15
2022-11-28T14:55:13.105Z,9.88
2022-11-28T14:58:05.320Z,10.50
2022-11-28T15:00:50.677Z,7.18
2022-11-28T15:03:39.076Z,14.02
2022-11-28T15:06:17.288Z,13.43
2022-11-28T15:09:25.159Z,9.65
2022-11-28T15:12:08.664Z,9.38
2022-11-28T15:14:35.694Z,8.63
2022-11-28T15:17:05.672Z,8.55
2022-11-28T15:19:48.600Z,10.50
2022-11-28T15:22:41.047Z,8.45
2022-11-28T15:25:37.284Z,8.80
2022-11-28T15:28:15.151Z,11.32
2022-11-28T15:30:47.083Z,9.20
2022-11-28T15:33:14.400Z,10.25
2022-11-28T15:36:00.645Z,12.70
2022-11-28T15:38:32.247Z,10.68
2022-11-28T15:41:00.951Z,11.25
2022-11-28T15:43:28.391Z,12.57
2022-11-28T15:45:59.196Z,9.43
2022-11-28T15:48:28.747Z,10.35
2022-11-28T15:50:56.050Z,13.15
2022-11-28T15:53:22.962Z,10.48
2022-11-28T15:56:08.598Z,10.95
2022-11-28T15:58:35.483Z,10.40
2022-11-28T16:01:05.331Z,10.88
2022-11-28T16:03:36.935Z,12.70
2022-11-28T16:06:05.917Z,10.88
2022-11-28T16:08:36.582Z,12.18
2022-11-28T16:11:05.759Z,14.80
2022-11-28T16:13:33.866Z,12.35
2022-11-28T16:16:04.040Z,14.30
2022-11-28T16:18:32.050Z,12.95
2022-11-28T16:21:00.794Z,10.15
2022-11-28T16:23:35.294Z,9.88
2022-11-28T16:26:25.828Z,11.52
2022-11-28T16:29:00.494Z,11.68
2022-11-28T16:31:28.327Z,15.50
2022-11-28T16:33:55.586Z,12.60
2022-11-28T16:36:31.069Z,12.32
2022-11-28T16:39:10.009Z,15.77
2022-11-28T16:41:39.736Z,12.90
2022-11-28T16:44:18.958Z,14.85
2022-11-28T16:46:52.050Z,12.52
2022-11-28T16:49:44.791Z,15.05
2022-11-28T16:52:27.349Z,17.45
2022-11-28T16:54:55.169Z,16.30
2022-11-28T16:57:22.339Z,13.52
2022-11-28T16:59:52.018Z,12.57
2022-11-28T17:02:20.383Z,13.50
2022-11-28T17:04:48.785Z,13.57
2022-11-28T17:07:18.437Z,12.52
2022-11-28T17:09:47.406Z,13.07
2022-11-28T17:12:24.341Z,14.18
2022-11-28T17:14:51.292Z,10.32
2022-11-28T17:17:19.929Z,12.68
2022-11-28T17:19:47.094Z,12.52
2022-11-28T17:22:22.056Z,15.77
2022-11-28T17:24:50.666Z,13.98
2022-11-28T17:27:17.365Z,14.90
2022-11-28T17:29:44.307Z,26.10
2022-11-28T17:32:13.431Z,16.98
2022-11-28T17:34:42.102Z,17.85
2022-11-28T17:37:09.483Z,16.77
2022-11-28T17:39:36.318Z,13.55
2022-11-28T17:42:03.189Z,16.50
2022-11-28T17:44:32.729Z,19.10
2022-11-28T17:47:03.205Z,15.75
2022-11-28T17:49:30.934Z,12.38
2022-11-28T17:51:58.071Z,12.25
2022-11-28T17:54:26.696Z,16.40
2022-11-28T17:56:56.275Z,12.73
2022-11-28T17:59:23.802Z,12.38
2022-11-28T18:01:50.676Z,13.95
2022-11-28T18:04:17.434Z,11.50
2022-11-28T18:06:45.269Z,14.38
2022-11-28T18:09:13.154Z,13.65
2022-11-28T18:11:42.402Z,12.77
2022-11-28T18:14:09.805Z,13.65
2022-11-28T18:16:36.480Z,17.25
2022-11-28T18:19:03.763Z,13.52
2022-11-28T18:21:30.369Z,11.77
2022-11-28T18:23:57.699Z,12.35
2022-11-28T18:26:26.108Z,14.73
2022-11-28T18:28:53.122Z,14.60
2022-11-28T18:31:23.165Z,15.75
2022-11-28T18:33:49.847Z,12.90
2022-11-28T18:36:25.027Z,15.18
2022-11-28T18:38:59.436Z,11.38
2022-11-28T18:41:26.697Z,15.55
2022-11-28T18:43:58.058Z,13.23
2022-11-28T18:46:26.250Z,13.93
2022-11-28T18:48:53.108Z,13.27
2022-11-28T18:51:21.849Z,11.77
2022-11-28T18:53:49.792Z,11.27
2022-11-28T18:56:16.937Z,12.80
2022-11-28T18:58:46.706Z,14.85
2022-11-28T19:01:13.290Z,17.63
2022-11-28T19:03:40.485Z,11.75
2022-11-28T19:06:08.982Z,11.80
2022-11-28T19:08:36.080Z,11.82
2022-11-28T19:11:14.216Z,11.27
2022-11-28T19:13:45.794Z,12.15
2022-11-28T19:16:15.751Z,11.90
2022-11-28T19:18:43.107Z,13.57
2022-11-28T19:21:12.199Z,10.63
2022-11-28T19:23:39.562Z,14.15
2022-11-28T19:26:11.616Z,12.85
2022-11-28T19:28:46.213Z,11.75
2022-11-28T19:31:15.608Z,11.45
2022-11-28T19:33:43.254Z,11.52
2022-11-28T19:36:12.426Z,13.18
2022-11-28T19:41:08.290Z,9.82
2022-11-28T19:43:35.400Z,11.05
2022-11-28T19:46:03.084Z,12.85
2022-11-28T19:48:30.799Z,13.02
2022-11-28T19:50:57.450Z,12.32
2022-11-28T19:53:24.753Z,10.95
2022-11-28T19:55:52.427Z,11.02
2022-11-28T19:58:18.897Z,17.13
2022-11-28T20:00:46.247Z,12.90
2022-11-28T20:03:12.768Z,14.50
2022-11-28T20:05:41.867Z,11.40
2022-11-28T20:08:08.830Z,13.10
2022-11-28T20:10:36.842Z,11.32
2022-11-28T20:13:03.667Z,11.70
2022-11-28T20:15:30.184Z,14.80
2022-11-28T20:17:56.643Z,15.25
2022-11-28T20:20:23.175Z,16.50
2022-11-28T20:22:49.649Z,15.27
2022-11-28T20:25:20.667Z,20.00
2022-11-28T20:27:47.532Z,15.25
2022-11-28T20:30:21.156Z,13.38
2022-11-28T20:32:47.629Z,14.90
2022-11-28T20:35:14.089Z,14.82
2022-11-28T20:37:40.581Z,12.48
2022-11-28T20:40:07.686Z,12.90
2022-11-28T20:42:39.609Z,17.42
2022-11-28T20:45:07.035Z,15.68
2022-11-28T20:47:34.721Z,12.85
2022-11-28T20:50:01.197Z,14.50
2022-11-28T20:52:28.197Z,17.08
2022-11-28T20:54:54.675Z,12.73
2022-11-28T20:57:22.416Z,10.02
2022-11-28T20:59:49.226Z,16.17
2022-11-28T21:02:15.797Z,16.38
2022-11-28T21:04:42.386Z,15.48
2022-11-28T21:07:08.944Z,15.25
2022-11-28T21:09:35.428Z,14.90
2022-11-28T21:12:01.905Z,16.80
2022-11-28T21:14:28.933Z,19.02
2022-11-28T21:16:56.970Z,12.88
2022-11-28T21:19:23.560Z,10.65
2022-11-28T21:21:50.117Z,13.20
2022-11-28T21:24:16.849Z,15.27
2022-11-28T21:26:48.147Z,17.83
2022-11-28T21:29:17.090Z,14.70
2022-11-28T21:31:45.256Z,11.93
2022-11-28T21:34:14.776Z,19.55
2022-11-28T21:36:41.978Z,19.40
2022-11-28T21:39:12.850Z,14.27
2022-11-28T21:41:39.386Z,14.20
2022-11-28T21:44:06.075Z,13.60
2022-11-28T21:46:32.573Z,12.32
2022-11-28T21:48:59.039Z,20.23
2022-11-28T21:51:28.511Z,16.58
2022-11-28T21:53:57.253Z,13.18
2022-11-28T21:56:24.426Z,16.08
2022-11-28T21:58:51.102Z,16.17
2022-11-28T22:01:18.079Z,14.48
2022-11-28T22:03:44.669Z,16.08
2022-11-28T22:06:18.409Z,18.00
2022-11-28T22:08:45.250Z,12.32
2022-11-28T22:11:13.190Z,18.02
2022-11-28T22:13:45.963Z,14.50
2022-11-28T22:16:17.395Z,13.27
2022-11-28T22:18:44.628Z,18.63
2022-11-28T22:21:50.667Z,22.13
2022-11-28T22:24:06.661Z,14.10
2022-11-28T22:26:33.634Z,12.35
2022-11-28T22:29:01.042Z,14.88
2022-11-28T22:31:27.738Z,17.50
2022-11-28T22:33:54.322Z,13.15
2022-11-28T22:36:21.291Z,15.50
2022-11-28T22:38:49.636Z,14.40
2022-11-28T22:41:24.832Z,19.55
2022-11-28T22:43:55.830Z,21.77
2022-11-28T22:46:22.436Z,18.63
2022-11-28T22:48:49.350Z,15.43
2022-11-28T22:51:20.971Z,21.58
2022-11-28T22:53:47.495Z,14.38
2022-11-28T22:56:15.805Z,13.93
2022-11-28T22:58:44.894Z,13.07
2022-11-28T23:01:14.594Z,14.68
2022-11-28T23:03:41.241Z,16.25
2022-11-28T23:06:19.514Z,14.93
2022-11-28T23:08:46.565Z,18.63
2022-11-28T23:11:16.358Z,17.30
2022-11-28T23:13:43.871Z,18.17
2022-11-28T23:16:22.952Z,18.23
2022-11-28T23:18:51.726Z,20.30
2022-11-28T23:21:19.520Z,19.23
2022-11-28T23:23:46.203Z,16.58
2022-11-28T23:26:15.877Z,20.73
2022-11-28T23:28:42.420Z,19.27
2022-11-28T23:31:19.448Z,17.55
2022-11-28T23:33:46.476Z,21.67
2022-11-28T23:36:17.888Z,17.17
2022-11-28T23:38:45.702Z,21.90
2022-11-28T23:41:12.903Z,16.20
2022-11-28T23:43:39.714Z,16.02
2022-11-28T23:46:07.987Z,17.70
2022-11-28T23:48:34.685Z,21.30
2022-11-28T23:51:01.195Z,18.38
2022-11-28T23:53:27.668Z,18.92
2022-11-28T23:55:54.069Z,15.73
2022-11-28T23:58:20.577Z,17.45
